sensor_id;sensor_type;location;lat;lon;timestamp;P1;durP1;ratioP1;P2;durP2;ratioP2
50647;SDS011;36617;52.002;6.034;2023-04-03T00:00:19;1.67;;;0.93;;
50647;SDS011;36617;52.002;6.034;2023-04-03T00:02:44;2.83;;;1.13;;
50647;SDS011;36617;52.002;6.034;2023-04-03T00:05:09;2.40;;;1.00;;
50647;SDS011;36617;52.002;6.034;2023-04-03T00:07:35;2.10;;;1.00;;
50647;SDS011;36617;52.002;6.034;2023-04-03T00:10:00;2.40;;;0.90;;
50647;SDS011;36617;52.002;6.034;2023-04-03T00:12:25;2.20;;;1.07;;
50647;SDS011;36617;52.002;6.034;2023-04-03T00:14:50;1.83;;;1.00;;
50647;SDS011;36617;52.002;6.034;2023-04-03T00:17:16;2.33;;;1.00;;
50647;SDS011;36617;52.002;6.034;2023-04-03T00:19:41;2.20;;;1.00;;
50647;SDS011;36617;52.002;6.034;2023-04-03T00:22:06;2.20;;;1.00;;
50647;SDS011;36617;52.002;6.034;2023-04-03T00:24:31;2.10;;;0.90;;
50647;SDS011;36617;52.002;6.034;2023-04-03T00:26:56;1.57;;;0.90;;
50647;SDS011;36617;52.002;6.034;2023-04-03T00:29:21;2.93;;;1.07;;
50647;SDS011;36617;52.002;6.034;2023-04-03T00:31:47;2.53;;;0.90;;
50647;SDS011;36617;52.002;6.034;2023-04-03T00:34:12;3.10;;;1.00;;
50647;SDS011;36617;52.002;6.034;2023-04-03T00:36:37;2.30;;;0.80;;
50647;SDS011;36617;52.002;6.034;2023-04-03T00:39:02;2.20;;;1.10;;
50647;SDS011;36617;52.002;6.034;2023-04-03T00:41:27;2.30;;;1.00;;
50647;SDS011;36617;52.002;6.034;2023-04-03T00:43:53;2.33;;;0.90;;
50647;SDS011;36617;52.002;6.034;2023-04-03T00:46:18;1.43;;;0.80;;
50647;SDS011;36617;52.002;6.034;2023-04-03T00:48:44;2.17;;;1.00;;
50647;SDS011;36617;52.002;6.034;2023-04-03T00:51:11;2.15;;;0.80;;
50647;SDS011;36617;52.002;6.034;2023-04-03T00:56:23;2.53;;;0.93;;
50647;SDS011;36617;52.002;6.034;2023-04-03T00:58:51;2.17;;;0.90;;
50647;SDS011;36617;52.002;6.034;2023-04-03T01:01:20;2.25;;;0.90;;
50647;SDS011;36617;52.002;6.034;2023-04-03T01:03:47;2.17;;;0.90;;
50647;SDS011;36617;52.002;6.034;2023-04-03T01:06:12;1.90;;;0.90;;
50647;SDS011;36617;52.002;6.034;2023-04-03T01:08:39;1.85;;;0.98;;
50647;SDS011;36617;52.002;6.034;2023-04-03T01:11:04;2.20;;;1.00;;
50647;SDS011;36617;52.002;6.034;2023-04-03T01:13:30;2.83;;;1.10;;
50647;SDS011;36617;52.002;6.034;2023-04-03T01:15:56;2.10;;;0.90;;
50647;SDS011;36617;52.002;6.034;2023-04-03T01:18:22;2.13;;;0.90;;
50647;SDS011;36617;52.002;6.034;2023-04-03T01:25:57;2.53;;;1.00;;
50647;SDS011;36617;52.002;6.034;2023-04-03T01:28:24;2.80;;;0.90;;
50647;SDS011;36617;52.002;6.034;2023-04-03T01:30:51;1.98;;;0.88;;
50647;SDS011;36617;52.002;6.034;2023-04-03T01:33:18;2.88;;;1.00;;
50647;SDS011;36617;52.002;6.034;2023-04-03T01:35:43;2.57;;;1.00;;
50647;SDS011;36617;52.002;6.034;2023-04-03T01:38:08;2.33;;;0.87;;
50647;SDS011;36617;52.002;6.034;2023-04-03T01:40:33;2.00;;;0.80;;
50647;SDS011;36617;52.002;6.034;2023-04-03T01:42:59;3.05;;;1.00;;
50647;SDS011;36617;52.002;6.034;2023-04-03T01:45:24;2.70;;;1.00;;
50647;SDS011;36617;52.002;6.034;2023-04-03T01:47:50;2.47;;;0.90;;
50647;SDS011;36617;52.002;6.034;2023-04-03T01:50:15;2.45;;;0.90;;
50647;SDS011;36617;52.002;6.034;2023-04-03T01:52:40;2.60;;;1.03;;
50647;SDS011;36617;52.002;6.034;2023-04-03T01:55:06;2.23;;;0.90;;
50647;SDS011;36617;52.002;6.034;2023-04-03T01:57:31;2.63;;;1.00;;
50647;SDS011;36617;52.002;6.034;2023-04-03T01:59:56;1.67;;;0.80;;
50647;SDS011;36617;52.002;6.034;2023-04-03T02:02:21;2.57;;;0.90;;
50647;SDS011;36617;52.002;6.034;2023-04-03T02:04:46;3.17;;;0.93;;
50647;SDS011;36617;52.002;6.034;2023-04-03T02:07:12;2.30;;;0.83;;
50647;SDS011;36617;52.002;6.034;2023-04-03T02:09:37;2.40;;;0.90;;
50647;SDS011;36617;52.002;6.034;2023-04-03T02:12:02;1.52;;;0.73;;
50647;SDS011;36617;52.002;6.034;2023-04-03T02:14:27;2.20;;;0.97;;
50647;SDS011;36617;52.002;6.034;2023-04-03T02:16:52;2.33;;;0.80;;
50647;SDS011;36617;52.002;6.034;2023-04-03T02:19:18;2.47;;;0.90;;
50647;SDS011;36617;52.002;6.034;2023-04-03T02:21:43;2.33;;;0.90;;
50647;SDS011;36617;52.002;6.034;2023-04-03T02:24:08;2.63;;;1.05;;
50647;SDS011;36617;52.002;6.034;2023-04-03T02:26:33;1.80;;;0.70;;
50647;SDS011;36617;52.002;6.034;2023-04-03T02:28:58;2.23;;;0.80;;
50647;SDS011;36617;52.002;6.034;2023-04-03T02:31:24;2.63;;;1.00;;
50647;SDS011;36617;52.002;6.034;2023-04-03T02:33:49;2.60;;;0.90;;
50647;SDS011;36617;52.002;6.034;2023-04-03T02:36:15;1.67;;;0.80;;
50647;SDS011;36617;52.002;6.034;2023-04-03T02:38:40;3.13;;;0.97;;
50647;SDS011;36617;52.002;6.034;2023-04-03T02:41:06;2.30;;;0.90;;
50647;SDS011;36617;52.002;6.034;2023-04-03T02:43:32;1.98;;;0.90;;
50647;SDS011;36617;52.002;6.034;2023-04-03T02:45:57;2.30;;;0.90;;
50647;SDS011;36617;52.002;6.034;2023-04-03T02:48:23;2.43;;;0.90;;
50647;SDS011;36617;52.002;6.034;2023-04-03T02:50:48;2.50;;;1.00;;
50647;SDS011;36617;52.002;6.034;2023-04-03T02:53:14;2.10;;;0.80;;
50647;SDS011;36617;52.002;6.034;2023-04-03T02:55:40;1.88;;;0.70;;
50647;SDS011;36617;52.002;6.034;2023-04-03T02:58:05;2.17;;;0.90;;
50647;SDS011;36617;52.002;6.034;2023-04-03T03:00:30;2.57;;;0.90;;
50647;SDS011;36617;52.002;6.034;2023-04-03T03:02:55;3.60;;;0.97;;
50647;SDS011;36617;52.002;6.034;2023-04-03T03:05:21;2.00;;;0.80;;
50647;SDS011;36617;52.002;6.034;2023-04-03T03:07:46;2.47;;;0.88;;
50647;SDS011;36617;52.002;6.034;2023-04-03T03:10:11;3.27;;;1.10;;
50647;SDS011;36617;52.002;6.034;2023-04-03T03:12:37;1.90;;;0.80;;
50647;SDS011;36617;52.002;6.034;2023-04-03T03:15:02;2.03;;;0.83;;
50647;SDS011;36617;52.002;6.034;2023-04-03T03:17:27;2.50;;;1.00;;
50647;SDS011;36617;52.002;6.034;2023-04-03T03:19:52;1.83;;;0.80;;
50647;SDS011;36617;52.002;6.034;2023-04-03T03:22:18;3.23;;;1.00;;
50647;SDS011;36617;52.002;6.034;2023-04-03T03:24:43;2.42;;;1.10;;
50647;SDS011;36617;52.002;6.034;2023-04-03T03:27:08;2.53;;;0.90;;
50647;SDS011;36617;52.002;6.034;2023-04-03T03:29:33;2.07;;;0.80;;
50647;SDS011;36617;52.002;6.034;2023-04-03T03:31:59;1.97;;;0.90;;
50647;SDS011;36617;52.002;6.034;2023-04-03T03:34:24;2.33;;;1.03;;
50647;SDS011;36617;52.002;6.034;2023-04-03T03:36:50;2.27;;;0.90;;
50647;SDS011;36617;52.002;6.034;2023-04-03T03:39:15;2.23;;;0.80;;
50647;SDS011;36617;52.002;6.034;2023-04-03T03:41:40;2.70;;;0.90;;
50647;SDS011;36617;52.002;6.034;2023-04-03T03:44:05;1.83;;;0.80;;
50647;SDS011;36617;52.002;6.034;2023-04-03T03:46:31;3.60;;;0.90;;
50647;SDS011;36617;52.002;6.034;2023-04-03T03:48:56;2.40;;;0.83;;
50647;SDS011;36617;52.002;6.034;2023-04-03T03:51:21;2.10;;;0.80;;
50647;SDS011;36617;52.002;6.034;2023-04-03T03:53:46;2.83;;;0.90;;
50647;SDS011;36617;52.002;6.034;2023-04-03T03:56:11;2.70;;;1.00;;
50647;SDS011;36617;52.002;6.034;2023-04-03T03:58:37;2.13;;;0.80;;
50647;SDS011;36617;52.002;6.034;2023-04-03T04:01:05;2.47;;;0.90;;
50647;SDS011;36617;52.002;6.034;2023-04-03T04:03:31;2.33;;;0.97;;
50647;SDS011;36617;52.002;6.034;2023-04-03T04:05:56;2.37;;;0.90;;
50647;SDS011;36617;52.002;6.034;2023-04-03T04:08:21;1.40;;;0.70;;
50647;SDS011;36617;52.002;6.034;2023-04-03T04:10:47;1.80;;;0.87;;
50647;SDS011;36617;52.002;6.034;2023-04-03T04:13:12;2.63;;;0.85;;
50647;SDS011;36617;52.002;6.034;2023-04-03T04:15:37;1.90;;;0.90;;
50647;SDS011;36617;52.002;6.034;2023-04-03T04:18:02;1.40;;;0.70;;
50647;SDS011;36617;52.002;6.034;2023-04-03T04:20:28;2.20;;;1.00;;
50647;SDS011;36617;52.002;6.034;2023-04-03T04:22:53;3.20;;;0.90;;
50647;SDS011;36617;52.002;6.034;2023-04-03T04:25:18;2.50;;;0.80;;
50647;SDS011;36617;52.002;6.034;2023-04-03T04:27:43;2.77;;;0.90;;
50647;SDS011;36617;52.002;6.034;2023-04-03T04:30:09;1.57;;;0.80;;
50647;SDS011;36617;52.002;6.034;2023-04-03T04:32:35;3.83;;;1.00;;
50647;SDS011;36617;52.002;6.034;2023-04-03T04:35:00;3.10;;;0.90;;
50647;SDS011;36617;52.002;6.034;2023-04-03T04:37:25;2.10;;;0.87;;
50647;SDS011;36617;52.002;6.034;2023-04-03T04:39:51;2.67;;;0.93;;
50647;SDS011;36617;52.002;6.034;2023-04-03T04:42:16;2.63;;;0.90;;
50647;SDS011;36617;52.002;6.034;2023-04-03T04:44:41;2.05;;;0.85;;
50647;SDS011;36617;52.002;6.034;2023-04-03T04:47:07;2.60;;;1.00;;
50647;SDS011;36617;52.002;6.034;2023-04-03T04:49:32;3.00;;;0.90;;
50647;SDS011;36617;52.002;6.034;2023-04-03T04:51:57;2.77;;;0.90;;
50647;SDS011;36617;52.002;6.034;2023-04-03T04:54:22;2.63;;;1.13;;
50647;SDS011;36617;52.002;6.034;2023-04-03T04:56:47;2.13;;;0.93;;
50647;SDS011;36617;52.002;6.034;2023-04-03T04:59:13;1.90;;;1.00;;
50647;SDS011;36617;52.002;6.034;2023-04-03T05:01:38;2.07;;;0.83;;
50647;SDS011;36617;52.002;6.034;2023-04-03T05:04:03;1.93;;;0.87;;
50647;SDS011;36617;52.002;6.034;2023-04-03T05:06:28;2.33;;;0.93;;
50647;SDS011;36617;52.002;6.034;2023-04-03T05:08:55;2.80;;;1.00;;
50647;SDS011;36617;52.002;6.034;2023-04-03T05:11:20;2.83;;;0.90;;
50647;SDS011;36617;52.002;6.034;2023-04-03T05:13:46;2.47;;;1.00;;
50647;SDS011;36617;52.002;6.034;2023-04-03T05:16:11;2.23;;;0.90;;
50647;SDS011;36617;52.002;6.034;2023-04-03T05:18:36;2.87;;;1.10;;
50647;SDS011;36617;52.002;6.034;2023-04-03T05:21:01;2.07;;;0.90;;
50647;SDS011;36617;52.002;6.034;2023-04-03T05:23:26;2.83;;;0.90;;
50647;SDS011;36617;52.002;6.034;2023-04-03T05:25:52;2.77;;;1.00;;
50647;SDS011;36617;52.002;6.034;2023-04-03T05:28:17;1.93;;;0.70;;
50647;SDS011;36617;52.002;6.034;2023-04-03T05:30:42;2.23;;;0.70;;
50647;SDS011;36617;52.002;6.034;2023-04-03T05:33:08;2.57;;;0.93;;
50647;SDS011;36617;52.002;6.034;2023-04-03T05:35:35;2.40;;;0.83;;
50647;SDS011;36617;52.002;6.034;2023-04-03T05:38:00;2.47;;;1.00;;
50647;SDS011;36617;52.002;6.034;2023-04-03T05:40:25;2.33;;;0.97;;
50647;SDS011;36617;52.002;6.034;2023-04-03T05:42:51;2.70;;;0.90;;
50647;SDS011;36617;52.002;6.034;2023-04-03T05:45:16;2.83;;;1.00;;
50647;SDS011;36617;52.002;6.034;2023-04-03T05:47:41;2.67;;;0.80;;
50647;SDS011;36617;52.002;6.034;2023-04-03T05:50:07;1.60;;;0.80;;
50647;SDS011;36617;52.002;6.034;2023-04-03T05:52:36;3.15;;;0.90;;
50647;SDS011;36617;52.002;6.034;2023-04-03T05:55:02;2.70;;;0.90;;
50647;SDS011;36617;52.002;6.034;2023-04-03T05:57:27;2.87;;;0.90;;
50647;SDS011;36617;52.002;6.034;2023-04-03T05:59:53;2.87;;;1.00;;
50647;SDS011;36617;52.002;6.034;2023-04-03T06:02:22;2.77;;;1.10;;
50647;SDS011;36617;52.002;6.034;2023-04-03T06:04:47;2.35;;;1.00;;
50647;SDS011;36617;52.002;6.034;2023-04-03T06:07:17;2.45;;;0.90;;
50647;SDS011;36617;52.002;6.034;2023-04-03T06:09:43;2.00;;;0.90;;
50647;SDS011;36617;52.002;6.034;2023-04-03T06:12:08;2.60;;;0.90;;
50647;SDS011;36617;52.002;6.034;2023-04-03T06:14:33;2.17;;;0.90;;
50647;SDS011;36617;52.002;6.034;2023-04-03T06:16:59;2.00;;;0.90;;
50647;SDS011;36617;52.002;6.034;2023-04-03T06:19:25;1.87;;;0.70;;
50647;SDS011;36617;52.002;6.034;2023-04-03T06:21:50;2.53;;;0.90;;
50647;SDS011;36617;52.002;6.034;2023-04-03T06:24:16;2.63;;;0.80;;
50647;SDS011;36617;52.002;6.034;2023-04-03T06:26:41;2.40;;;0.90;;
50647;SDS011;36617;52.002;6.034;2023-04-03T06:29:07;2.43;;;0.90;;
50647;SDS011;36617;52.002;6.034;2023-04-03T06:31:32;2.60;;;0.90;;
50647;SDS011;36617;52.002;6.034;2023-04-03T06:33:57;2.53;;;0.90;;
50647;SDS011;36617;52.002;6.034;2023-04-03T06:36:23;1.80;;;0.80;;
50647;SDS011;36617;52.002;6.034;2023-04-03T06:38:48;2.30;;;0.90;;
50647;SDS011;36617;52.002;6.034;2023-04-03T06:41:13;2.83;;;1.00;;
50647;SDS011;36617;52.002;6.034;2023-04-03T06:43:39;2.83;;;0.90;;
50647;SDS011;36617;52.002;6.034;2023-04-03T06:46:05;2.83;;;0.90;;
50647;SDS011;36617;52.002;6.034;2023-04-03T06:48:30;6.77;;;1.00;;
50647;SDS011;36617;52.002;6.034;2023-04-03T06:50:55;5.30;;;1.10;;
50647;SDS011;36617;52.002;6.034;2023-04-03T06:53:20;2.90;;;0.90;;
50647;SDS011;36617;52.002;6.034;2023-04-03T06:55:46;5.70;;;1.10;;
50647;SDS011;36617;52.002;6.034;2023-04-03T06:58:12;2.55;;;0.80;;
50647;SDS011;36617;52.002;6.034;2023-04-03T07:00:37;2.80;;;0.80;;
50647;SDS011;36617;52.002;6.034;2023-04-03T07:03:02;3.80;;;0.90;;
50647;SDS011;36617;52.002;6.034;2023-04-03T07:05:28;2.50;;;1.00;;
50647;SDS011;36617;52.002;6.034;2023-04-03T07:07:53;3.10;;;0.90;;
50647;SDS011;36617;52.002;6.034;2023-04-03T07:10:18;5.30;;;1.00;;
50647;SDS011;36617;52.002;6.034;2023-04-03T07:12:43;3.53;;;0.90;;
50647;SDS011;36617;52.002;6.034;2023-04-03T07:15:09;4.00;;;1.07;;
50647;SDS011;36617;52.002;6.034;2023-04-03T07:17:34;3.00;;;1.00;;
50647;SDS011;36617;52.002;6.034;2023-04-03T07:20:00;5.75;;;0.90;;
50647;SDS011;36617;52.002;6.034;2023-04-03T07:22:26;4.07;;;1.00;;
50647;SDS011;36617;52.002;6.034;2023-04-03T07:24:51;4.10;;;0.90;;
50647;SDS011;36617;52.002;6.034;2023-04-03T07:27:16;4.50;;;1.10;;
50647;SDS011;36617;52.002;6.034;2023-04-03T07:29:42;3.15;;;1.00;;
50647;SDS011;36617;52.002;6.034;2023-04-03T07:32:07;4.73;;;1.20;;
50647;SDS011;36617;52.002;6.034;2023-04-03T07:34:33;3.85;;;0.90;;
50647;SDS011;36617;52.002;6.034;2023-04-03T07:36:58;4.53;;;1.03;;
50647;SDS011;36617;52.002;6.034;2023-04-03T07:39:23;5.23;;;1.00;;
50647;SDS011;36617;52.002;6.034;2023-04-03T07:41:49;3.53;;;1.13;;
50647;SDS011;36617;52.002;6.034;2023-04-03T07:44:14;3.40;;;1.00;;
50647;SDS011;36617;52.002;6.034;2023-04-03T07:46:40;3.40;;;0.97;;
50647;SDS011;36617;52.002;6.034;2023-04-03T07:49:05;3.88;;;1.00;;
50647;SDS011;36617;52.002;6.034;2023-04-03T07:51:31;4.40;;;1.27;;
50647;SDS011;36617;52.002;6.034;2023-04-03T07:53:56;5.30;;;1.10;;
50647;SDS011;36617;52.002;6.034;2023-04-03T07:56:21;3.83;;;0.90;;
50647;SDS011;36617;52.002;6.034;2023-04-03T07:58:47;2.70;;;0.98;;
50647;SDS011;36617;52.002;6.034;2023-04-03T08:01:12;3.70;;;0.93;;
50647;SDS011;36617;52.002;6.034;2023-04-03T08:03:38;3.30;;;0.90;;
50647;SDS011;36617;52.002;6.034;2023-04-03T08:06:04;2.97;;;0.90;;
50647;SDS011;36617;52.002;6.034;2023-04-03T08:08:30;4.07;;;0.98;;
50647;SDS011;36617;52.002;6.034;2023-04-03T08:10:57;2.90;;;1.00;;
50647;SDS011;36617;52.002;6.034;2023-04-03T08:13:22;3.65;;;1.00;;
50647;SDS011;36617;52.002;6.034;2023-04-03T08:15:48;2.20;;;0.90;;
50647;SDS011;36617;52.002;6.034;2023-04-03T08:18:14;3.23;;;0.80;;
50647;SDS011;36617;52.002;6.034;2023-04-03T08:20:39;3.20;;;0.80;;
50647;SDS011;36617;52.002;6.034;2023-04-03T08:23:05;2.13;;;0.80;;
50647;SDS011;36617;52.002;6.034;2023-04-03T08:25:30;2.13;;;0.80;;
50647;SDS011;36617;52.002;6.034;2023-04-03T08:27:56;3.25;;;1.00;;
50647;SDS011;36617;52.002;6.034;2023-04-03T08:30:21;2.20;;;0.70;;
50647;SDS011;36617;52.002;6.034;2023-04-03T08:32:46;2.70;;;0.80;;
50647;SDS011;36617;52.002;6.034;2023-04-03T08:35:12;3.07;;;0.83;;
50647;SDS011;36617;52.002;6.034;2023-04-03T08:37:37;2.80;;;0.83;;
50647;SDS011;36617;52.002;6.034;2023-04-03T08:40:04;2.83;;;0.98;;
50647;SDS011;36617;52.002;6.034;2023-04-03T08:42:36;3.25;;;0.90;;
50647;SDS011;36617;52.002;6.034;2023-04-03T08:47:38;3.17;;;0.80;;
50647;SDS011;36617;52.002;6.034;2023-04-03T08:50:06;4.35;;;0.80;;
50647;SDS011;36617;52.002;6.034;2023-04-03T08:52:39;4.25;;;0.80;;
50647;SDS011;36617;52.002;6.034;2023-04-03T08:55:20;2.47;;;0.90;;
50647;SDS011;36617;52.002;6.034;2023-04-03T08:57:47;2.17;;;0.77;;
50647;SDS011;36617;52.002;6.034;2023-04-03T09:02:52;1.90;;;0.70;;
50647;SDS011;36617;52.002;6.034;2023-04-03T09:05:19;2.72;;;0.80;;
50647;SDS011;36617;52.002;6.034;2023-04-03T09:07:46;3.03;;;0.80;;
50647;SDS011;36617;52.002;6.034;2023-04-03T09:10:14;2.57;;;0.70;;
50647;SDS011;36617;52.002;6.034;2023-04-03T09:12:41;2.80;;;0.80;;
50647;SDS011;36617;52.002;6.034;2023-04-03T09:15:21;2.25;;;0.80;;
50647;SDS011;36617;52.002;6.034;2023-04-03T09:20:38;2.83;;;0.80;;
50647;SDS011;36617;52.002;6.034;2023-04-03T09:25:49;2.85;;;0.70;;
50647;SDS011;36617;52.002;6.034;2023-04-03T09:28:14;2.22;;;0.60;;
50647;SDS011;36617;52.002;6.034;2023-04-03T09:30:40;2.10;;;0.70;;
50647;SDS011;36617;52.002;6.034;2023-04-03T09:33:06;3.10;;;0.80;;
50647;SDS011;36617;52.002;6.034;2023-04-03T09:35:32;2.40;;;0.60;;
50647;SDS011;36617;52.002;6.034;2023-04-03T09:42:49;2.40;;;0.60;;
50647;SDS011;36617;52.002;6.034;2023-04-03T09:45:21;2.05;;;0.60;;
50647;SDS011;36617;52.002;6.034;2023-04-03T09:47:47;2.88;;;0.70;;
50647;SDS011;36617;52.002;6.034;2023-04-03T09:52:38;1.63;;;0.60;;
50647;SDS011;36617;52.002;6.034;2023-04-03T09:55:07;1.58;;;0.55;;
50647;SDS011;36617;52.002;6.034;2023-04-03T09:57:33;1.35;;;0.60;;
50647;SDS011;36617;52.002;6.034;2023-04-03T09:59:59;2.93;;;0.80;;
50647;SDS011;36617;52.002;6.034;2023-04-03T10:04:56;1.45;;;0.55;;
50647;SDS011;36617;52.002;6.034;2023-04-03T10:07:32;1.40;;;0.40;;
50647;SDS011;36617;52.002;6.034;2023-04-03T10:09:59;1.20;;;0.60;;
50647;SDS011;36617;52.002;6.034;2023-04-03T10:12:26;1.77;;;0.60;;
50647;SDS011;36617;52.002;6.034;2023-04-03T10:14:55;1.23;;;0.63;;
50647;SDS011;36617;52.002;6.034;2023-04-03T10:17:25;1.48;;;0.60;;
50647;SDS011;36617;52.002;6.034;2023-04-03T10:28:00;1.30;;;0.50;;
50647;SDS011;36617;52.002;6.034;2023-04-03T10:30:18;1.58;;;0.60;;
50647;SDS011;36617;52.002;6.034;2023-04-03T10:37:52;1.58;;;0.50;;
50647;SDS011;36617;52.002;6.034;2023-04-03T10:43:36;2.20;;;0.60;;
50647;SDS011;36617;52.002;6.034;2023-04-03T10:45:57;1.15;;;0.50;;
50647;SDS011;36617;52.002;6.034;2023-04-03T10:48:35;1.73;;;0.47;;
50647;SDS011;36617;52.002;6.034;2023-04-03T10:58:32;10.43;;;4.93;;
50647;SDS011;36617;52.002;6.034;2023-04-03T11:01:01;27.05;;;13.88;;
50647;SDS011;36617;52.002;6.034;2023-04-03T11:03:30;32.13;;;17.75;;
50647;SDS011;36617;52.002;6.034;2023-04-03T11:05:56;29.20;;;17.80;;
50647;SDS011;36617;52.002;6.034;2023-04-03T11:10:51;26.65;;;16.52;;
50647;SDS011;36617;52.002;6.034;2023-04-03T11:13:22;28.35;;;15.52;;
50647;SDS011;36617;52.002;6.034;2023-04-03T11:15:50;24.30;;;14.32;;
50647;SDS011;36617;52.002;6.034;2023-04-03T11:18:25;26.35;;;14.05;;
50647;SDS011;36617;52.002;6.034;2023-04-03T11:23:26;23.30;;;13.40;;
50647;SDS011;36617;52.002;6.034;2023-04-03T11:25:54;19.60;;;10.30;;
50647;SDS011;36617;52.002;6.034;2023-04-03T11:28:21;19.77;;;11.43;;
50647;SDS011;36617;52.002;6.034;2023-04-03T11:36:39;15.77;;;9.70;;
50647;SDS011;36617;52.002;6.034;2023-04-03T11:38:45;15.20;;;9.10;;
50647;SDS011;36617;52.002;6.034;2023-04-03T11:41:12;13.35;;;8.65;;
50647;SDS011;36617;52.002;6.034;2023-04-03T11:46:22;13.82;;;7.95;;
50647;SDS011;36617;52.002;6.034;2023-04-03T11:48:48;12.10;;;7.17;;
50647;SDS011;36617;52.002;6.034;2023-04-03T11:53:42;11.55;;;7.13;;
50647;SDS011;36617;52.002;6.034;2023-04-03T11:59:14;11.40;;;6.05;;
50647;SDS011;36617;52.002;6.034;2023-04-03T12:01:44;9.53;;;5.27;;
50647;SDS011;36617;52.002;6.034;2023-04-03T12:04:10;8.70;;;5.15;;
50647;SDS011;36617;52.002;6.034;2023-04-03T12:09:04;8.43;;;4.63;;
50647;SDS011;36617;52.002;6.034;2023-04-03T12:11:46;8.48;;;4.47;;
50647;SDS011;36617;52.002;6.034;2023-04-03T12:14:15;8.20;;;4.40;;
50647;SDS011;36617;52.002;6.034;2023-04-03T12:16:42;9.20;;;4.40;;
50647;SDS011;36617;52.002;6.034;2023-04-03T12:37:26;6.03;;;3.30;;
50647;SDS011;36617;52.002;6.034;2023-04-03T12:45:03;5.10;;;2.72;;
50647;SDS011;36617;52.002;6.034;2023-04-03T12:47:34;6.10;;;2.78;;
50647;SDS011;36617;52.002;6.034;2023-04-03T12:50:01;6.72;;;3.03;;
50647;SDS011;36617;52.002;6.034;2023-04-03T12:52:30;5.95;;;2.88;;
50647;SDS011;36617;52.002;6.034;2023-04-03T12:54:56;6.63;;;2.88;;
50647;SDS011;36617;52.002;6.034;2023-04-03T12:57:24;5.28;;;2.53;;
50647;SDS011;36617;52.002;6.034;2023-04-03T12:59:49;5.65;;;2.60;;
50647;SDS011;36617;52.002;6.034;2023-04-03T13:02:25;6.43;;;2.57;;
50647;SDS011;36617;52.002;6.034;2023-04-03T13:04:51;6.65;;;2.60;;
50647;SDS011;36617;52.002;6.034;2023-04-03T13:07:25;6.05;;;2.28;;
50647;SDS011;36617;52.002;6.034;2023-04-03T13:10:04;8.03;;;2.53;;
50647;SDS011;36617;52.002;6.034;2023-04-03T13:12:47;7.50;;;2.38;;
50647;SDS011;36617;52.002;6.034;2023-04-03T13:15:17;6.37;;;2.30;;
50647;SDS011;36617;52.002;6.034;2023-04-03T13:17:43;6.22;;;2.28;;
50647;SDS011;36617;52.002;6.034;2023-04-03T13:20:12;6.50;;;2.30;;
50647;SDS011;36617;52.002;6.034;2023-04-03T13:22:40;5.40;;;2.03;;
50647;SDS011;36617;52.002;6.034;2023-04-03T13:25:09;7.68;;;2.20;;
50647;SDS011;36617;52.002;6.034;2023-04-03T13:27:35;5.20;;;2.10;;
50647;SDS011;36617;52.002;6.034;2023-04-03T13:30:02;6.50;;;1.90;;
50647;SDS011;36617;52.002;6.034;2023-04-03T13:32:28;5.78;;;2.10;;
50647;SDS011;36617;52.002;6.034;2023-04-03T13:34:54;6.00;;;2.00;;
50647;SDS011;36617;52.002;6.034;2023-04-03T13:37:27;5.13;;;2.20;;
50647;SDS011;36617;52.002;6.034;2023-04-03T13:40:12;5.22;;;1.88;;
50647;SDS011;36617;52.002;6.034;2023-04-03T13:42:39;5.18;;;1.90;;
50647;SDS011;36617;52.002;6.034;2023-04-03T13:45:10;4.95;;;1.85;;
50647;SDS011;36617;52.002;6.034;2023-04-03T13:47:39;5.43;;;2.08;;
50647;SDS011;36617;52.002;6.034;2023-04-03T13:52:41;5.13;;;1.90;;
50647;SDS011;36617;52.002;6.034;2023-04-03T13:55:18;4.85;;;2.22;;
50647;SDS011;36617;52.002;6.034;2023-04-03T13:57:50;3.70;;;1.92;;
50647;SDS011;36617;52.002;6.034;2023-04-03T14:00:20;5.00;;;1.83;;
50647;SDS011;36617;52.002;6.034;2023-04-03T14:02:46;5.05;;;1.90;;
50647;SDS011;36617;52.002;6.034;2023-04-03T14:05:12;4.65;;;1.77;;
50647;SDS011;36617;52.002;6.034;2023-04-03T14:07:37;4.73;;;1.80;;
50647;SDS011;36617;52.002;6.034;2023-04-03T14:10:03;5.45;;;1.80;;
50647;SDS011;36617;52.002;6.034;2023-04-03T14:12:46;4.77;;;1.80;;
50647;SDS011;36617;52.002;6.034;2023-04-03T14:15:20;4.30;;;1.90;;
50647;SDS011;36617;52.002;6.034;2023-04-03T14:17:47;3.42;;;1.52;;
50647;SDS011;36617;52.002;6.034;2023-04-03T14:20:16;3.70;;;1.60;;
50647;SDS011;36617;52.002;6.034;2023-04-03T14:22:42;5.18;;;1.70;;
50647;SDS011;36617;52.002;6.034;2023-04-03T14:25:07;4.53;;;1.53;;
50647;SDS011;36617;52.002;6.034;2023-04-03T14:27:34;4.93;;;1.60;;
50647;SDS011;36617;52.002;6.034;2023-04-03T14:29:59;5.30;;;1.50;;
50647;SDS011;36617;52.002;6.034;2023-04-03T14:32:25;3.93;;;1.70;;
50647;SDS011;36617;52.002;6.034;2023-04-03T14:34:51;5.70;;;1.53;;
50647;SDS011;36617;52.002;6.034;2023-04-03T14:37:18;4.55;;;1.48;;
50647;SDS011;36617;52.002;6.034;2023-04-03T14:39:44;5.88;;;1.80;;
50647;SDS011;36617;52.002;6.034;2023-04-03T14:42:21;10.17;;;3.20;;
50647;SDS011;36617;52.002;6.034;2023-04-03T14:44:46;20.48;;;6.80;;
50647;SDS011;36617;52.002;6.034;2023-04-03T14:47:16;21.23;;;6.33;;
50647;SDS011;36617;52.002;6.034;2023-04-03T14:49:42;19.10;;;5.60;;
50647;SDS011;36617;52.002;6.034;2023-04-03T14:52:16;18.47;;;5.93;;
50647;SDS011;36617;52.002;6.034;2023-04-03T14:54:42;17.05;;;5.15;;
50647;SDS011;36617;52.002;6.034;2023-04-03T14:57:08;15.53;;;5.13;;
50647;SDS011;36617;52.002;6.034;2023-04-03T14:59:33;13.70;;;5.20;;
50647;SDS011;36617;52.002;6.034;2023-04-03T15:01:59;14.33;;;5.07;;
50647;SDS011;36617;52.002;6.034;2023-04-03T15:04:24;14.13;;;4.67;;
50647;SDS011;36617;52.002;6.034;2023-04-03T15:06:50;11.90;;;4.28;;
50647;SDS011;36617;52.002;6.034;2023-04-03T15:11:44;13.00;;;4.50;;
50647;SDS011;36617;52.002;6.034;2023-04-03T15:14:10;12.50;;;4.30;;
50647;SDS011;36617;52.002;6.034;2023-04-03T15:16:35;12.77;;;4.60;;
50647;SDS011;36617;52.002;6.034;2023-04-03T15:19:00;10.30;;;3.70;;
50647;SDS011;36617;52.002;6.034;2023-04-03T15:21:25;10.68;;;3.83;;
50647;SDS011;36617;52.002;6.034;2023-04-03T15:23:51;11.77;;;3.87;;
50647;SDS011;36617;52.002;6.034;2023-04-03T15:26:16;11.57;;;3.83;;
50647;SDS011;36617;52.002;6.034;2023-04-03T15:28:41;9.03;;;3.77;;
50647;SDS011;36617;52.002;6.034;2023-04-03T15:31:07;11.50;;;4.05;;
50647;SDS011;36617;52.002;6.034;2023-04-03T15:33:32;10.07;;;4.03;;
50647;SDS011;36617;52.002;6.034;2023-04-03T15:35:58;11.50;;;3.47;;
50647;SDS011;36617;52.002;6.034;2023-04-03T15:38:23;9.30;;;3.60;;
50647;SDS011;36617;52.002;6.034;2023-04-03T15:40:48;9.43;;;3.50;;
50647;SDS011;36617;52.002;6.034;2023-04-03T15:43:14;9.88;;;3.35;;
50647;SDS011;36617;52.002;6.034;2023-04-03T15:45:40;7.57;;;2.70;;
50647;SDS011;36617;52.002;6.034;2023-04-03T15:48:05;6.47;;;2.60;;
50647;SDS011;36617;52.002;6.034;2023-04-03T15:50:31;15.57;;;3.73;;
50647;SDS011;36617;52.002;6.034;2023-04-03T15:52:57;21.23;;;6.57;;
50647;SDS011;36617;52.002;6.034;2023-04-03T15:55:26;22.77;;;7.72;;
50647;SDS011;36617;52.002;6.034;2023-04-03T15:57:52;40.45;;;13.38;;
50647;SDS011;36617;52.002;6.034;2023-04-03T16:00:17;47.60;;;16.13;;
50647;SDS011;36617;52.002;6.034;2023-04-03T16:02:44;48.17;;;17.73;;
50647;SDS011;36617;52.002;6.034;2023-04-03T16:05:10;49.67;;;18.67;;
50647;SDS011;36617;52.002;6.034;2023-04-03T16:07:36;54.25;;;20.10;;
50647;SDS011;36617;52.002;6.034;2023-04-03T16:10:02;47.80;;;18.08;;
50647;SDS011;36617;52.002;6.034;2023-04-03T16:12:28;45.43;;;18.00;;
50647;SDS011;36617;52.002;6.034;2023-04-03T16:14:53;45.90;;;18.43;;
50647;SDS011;36617;52.002;6.034;2023-04-03T16:17:18;41.50;;;18.00;;
50647;SDS011;36617;52.002;6.034;2023-04-03T16:19:43;40.87;;;15.33;;
50647;SDS011;36617;52.002;6.034;2023-04-03T16:22:08;38.93;;;16.53;;